createdAt,value
2018-03-30T00:00:51.865Z,83.50
2018-03-30T00:03:20.526Z,83.90
2018-03-30T00:05:49.908Z,85.20
2018-03-30T00:08:19.133Z,85.20
2018-03-30T00:10:53.328Z,85.70
2018-03-30T00:13:21.920Z,85.40
2018-03-30T00:15:51.283Z,85.20
2018-03-30T00:18:19.908Z,85.20
2018-03-30T00:20:48.491Z,84.50
2018-03-30T00:23:17.086Z,84.20
2018-03-30T00:25:45.644Z,85.70
2018-03-30T00:28:15.038Z,83.40
2018-03-30T00:30:43.655Z,83.40
2018-03-30T00:33:12.243Z,83.60
2018-03-30T00:35:41.533Z,84.10
2018-03-30T00:38:10.511Z,85.50
2018-03-30T00:40:39.399Z,85.10
2018-03-30T00:43:08.202Z,85.30
2018-03-30T00:45:36.856Z,84.80
2018-03-30T00:48:06.254Z,83.20
2018-03-30T00:50:34.854Z,83.30
2018-03-30T00:53:03.489Z,82.10
2018-03-30T00:55:32.827Z,84.70
2018-03-30T00:58:01.670Z,84.70
2018-03-30T01:00:30.400Z,86.50
2018-03-30T01:02:59.090Z,87.20
2018-03-30T01:05:27.673Z,88.20
2018-03-30T01:07:56.295Z,87.60
2018-03-30T01:10:25.349Z,84.40
2018-03-30T01:12:54.473Z,86.60
2018-03-30T01:15:23.885Z,88.60
2018-03-30T01:17:52.548Z,88.20
2018-03-30T01:20:21.127Z,87.10
2018-03-30T01:22:49.753Z,85.30
2018-03-30T01:25:18.332Z,82.40
2018-03-30T01:27:47.730Z,86.70
2018-03-30T01:30:16.477Z,86.70
2018-03-30T01:32:45.078Z,89.10
2018-03-30T01:35:13.706Z,88.20
2018-03-30T01:37:42.459Z,88.40
2018-03-30T01:40:11.039Z,87.40
2018-03-30T01:42:40.496Z,84.50
2018-03-30T01:45:09.650Z,87.30
2018-03-30T01:47:38.328Z,88.30
2018-03-30T01:50:07.725Z,84.10
2018-03-30T01:52:36.301Z,84.00
2018-03-30T01:55:04.879Z,87.20
2018-03-30T01:57:34.314Z,88.10
2018-03-30T02:00:02.972Z,88.00
2018-03-30T02:02:31.624Z,87.80
2018-03-30T02:05:00.338Z,87.00
2018-03-30T02:07:28.923Z,86.80
2018-03-30T02:09:57.466Z,86.70
2018-03-30T02:12:26.205Z,86.50
2018-03-30T02:14:54.980Z,86.50
2018-03-30T02:17:24.302Z,86.00
2018-03-30T02:19:53.812Z,85.90
2018-03-30T02:22:22.373Z,85.80
2018-03-30T02:24:51.935Z,85.40
2018-03-30T02:27:20.619Z,85.40
2018-03-30T02:29:49.997Z,85.30
2018-03-30T02:32:18.597Z,85.30
2018-03-30T02:34:47.208Z,86.00
2018-03-30T02:37:15.884Z,84.00
2018-03-30T02:39:44.541Z,84.20
2018-03-30T02:42:13.140Z,85.00
2018-03-30T02:44:42.663Z,86.10
2018-03-30T02:47:11.694Z,86.10
2018-03-30T02:49:40.576Z,85.80
2018-03-30T02:52:09.175Z,86.10
2018-03-30T02:54:37.876Z,87.30
2018-03-30T02:57:06.375Z,87.10
2018-03-30T02:59:34.977Z,87.60
2018-03-30T03:02:03.694Z,87.40
2018-03-30T03:04:32.337Z,85.80
2018-03-30T03:07:00.940Z,83.40
2018-03-30T03:09:29.563Z,85.10
2018-03-30T03:11:58.944Z,87.70
2018-03-30T03:14:27.514Z,87.70
2018-03-30T03:16:56.239Z,86.50
2018-03-30T03:19:25.468Z,87.10
2018-03-30T03:21:54.548Z,88.80
2018-03-30T03:24:23.192Z,89.00
2018-03-30T03:26:52.412Z,87.30
2018-03-30T03:29:21.129Z,86.30
2018-03-30T03:31:49.784Z,85.30
2018-03-30T03:34:19.197Z,84.10
2018-03-30T03:36:47.751Z,84.10
2018-03-30T03:39:16.325Z,83.70
2018-03-30T03:41:44.994Z,83.70
2018-03-30T03:44:14.284Z,83.70
2018-03-30T03:46:42.938Z,83.60
2018-03-30T03:49:13.024Z,84.40
2018-03-30T03:51:42.174Z,83.50
2018-03-30T03:54:10.923Z,83.40
2018-03-30T03:56:39.547Z,83.50
2018-03-30T03:59:08.148Z,83.40
2018-03-30T04:01:36.782Z,82.60
2018-03-30T04:04:05.352Z,82.70
2018-03-30T04:06:34.738Z,82.10
2018-03-30T04:09:03.273Z,82.10
2018-03-30T04:11:31.879Z,82.00
2018-03-30T04:14:01.199Z,81.60
2018-03-30T04:16:30.538Z,81.30
2018-03-30T04:18:59.194Z,81.30
2018-03-30T04:21:28.448Z,81.10
2018-03-30T04:23:57.658Z,80.80
2018-03-30T04:26:27.022Z,80.50
2018-03-30T04:28:55.646Z,80.50
2018-03-30T04:31:24.327Z,80.50
2018-03-30T04:33:52.939Z,80.30
2018-03-30T04:36:21.535Z,80.20
2018-03-30T04:38:50.043Z,80.40
2018-03-30T04:41:18.717Z,80.00
2018-03-30T04:43:48.137Z,79.80
2018-03-30T04:46:17.612Z,79.90
2018-03-30T04:48:46.195Z,79.90
2018-03-30T04:51:15.113Z,79.70
2018-03-30T04:53:44.637Z,79.60
2018-03-30T04:56:13.518Z,79.40
2018-03-30T04:58:42.923Z,79.20
2018-03-30T05:01:11.552Z,79.00
2018-03-30T05:03:40.168Z,79.20
2018-03-30T05:06:08.865Z,78.90
2018-03-30T05:08:37.574Z,79.00
2018-03-30T05:11:06.217Z,79.00
2018-03-30T05:13:34.836Z,79.00
2018-03-30T05:16:03.384Z,79.00
2018-03-30T05:18:32.878Z,78.70
2018-03-30T05:21:01.543Z,78.70
2018-03-30T05:23:30.607Z,78.50
2018-03-30T05:25:59.566Z,78.50
2018-03-30T05:28:28.521Z,78.30
2018-03-30T05:30:57.090Z,78.20
2018-03-30T05:33:25.716Z,78.30
2018-03-30T05:35:56.041Z,78.70
2018-03-30T05:38:24.697Z,78.70
2018-03-30T05:40:53.355Z,78.50
2018-03-30T05:43:22.048Z,78.60
2018-03-30T05:45:51.108Z,78.60
2018-03-30T05:48:19.889Z,78.50
2018-03-30T05:50:48.999Z,78.80
2018-03-30T05:53:17.716Z,78.80
2018-03-30T05:55:46.723Z,78.70
2018-03-30T05:58:15.563Z,78.80
2018-03-30T06:00:44.285Z,78.60
2018-03-30T06:03:12.864Z,78.70
2018-03-30T06:05:41.832Z,78.50
2018-03-30T06:08:11.247Z,78.50
2018-03-30T06:10:40.711Z,78.20
2018-03-30T06:13:09.318Z,78.20
2018-03-30T06:15:37.988Z,78.30
2018-03-30T06:18:07.375Z,78.40
2018-03-30T06:20:35.998Z,78.20
2018-03-30T06:23:04.804Z,78.20
2018-03-30T06:25:33.771Z,78.00
2018-03-30T06:28:02.967Z,78.40
2018-03-30T06:30:32.796Z,77.70
2018-03-30T06:33:01.505Z,77.70
2018-03-30T06:35:30.216Z,77.70
2018-03-30T06:37:58.972Z,77.50
2018-03-30T06:40:27.590Z,77.20
2018-03-30T06:42:56.388Z,77.50
2018-03-30T06:45:25.069Z,77.70
2018-03-30T06:47:53.930Z,77.60
2018-03-30T06:50:23.639Z,77.40
2018-03-30T06:52:52.320Z,77.30
2018-03-30T06:55:22.266Z,77.40
2018-03-30T06:57:51.610Z,77.60
2018-03-30T07:00:21.980Z,77.50
2018-03-30T07:02:51.503Z,77.70
2018-03-30T07:05:20.263Z,77.70
2018-03-30T07:07:48.928Z,77.20
2018-03-30T07:10:18.628Z,76.90
2018-03-30T07:12:47.780Z,76.80
2018-03-30T07:15:16.832Z,76.50
2018-03-30T07:17:45.560Z,76.00
2018-03-30T07:20:14.323Z,75.70
2018-03-30T07:22:43.857Z,74.40
2018-03-30T07:25:12.730Z,74.40
2018-03-30T07:27:41.903Z,73.90
2018-03-30T07:30:11.004Z,74.00
2018-03-30T07:32:39.712Z,73.70
2018-03-30T07:35:08.421Z,73.40
2018-03-30T07:37:37.169Z,73.50
2018-03-30T07:40:07.270Z,72.40
2018-03-30T07:42:36.042Z,70.90
2018-03-30T07:45:04.696Z,69.90
2018-03-30T07:47:33.433Z,68.60
2018-03-30T07:50:02.405Z,66.50
2018-03-30T07:52:31.274Z,67.20
2018-03-30T07:55:01.208Z,63.50
2018-03-30T07:57:30.489Z,64.10
2018-03-30T08:00:00.298Z,61.00
2018-03-30T08:02:29.218Z,60.90
2018-03-30T08:04:57.860Z,58.70
2018-03-30T08:07:26.564Z,57.40
2018-03-30T08:09:55.501Z,57.70
2018-03-30T08:12:25.289Z,59.60
2018-03-30T08:14:54.907Z,59.60
2018-03-30T08:17:24.202Z,60.20
2018-03-30T08:19:53.656Z,60.50
2018-03-30T08:22:22.700Z,60.40
2018-03-30T08:24:51.438Z,62.10
2018-03-30T08:27:20.564Z,61.50
2018-03-30T08:29:50.818Z,60.70
2018-03-30T08:32:19.699Z,60.60
2018-03-30T08:34:48.344Z,61.20
2018-03-30T08:37:17.229Z,62.20
2018-03-30T08:39:46.708Z,61.90
2018-03-30T08:42:15.368Z,61.70
2018-03-30T08:44:44.696Z,59.50
2018-03-30T08:47:13.382Z,59.50
2018-03-30T08:49:42.097Z,59.20
2018-03-30T08:52:11.534Z,59.20
2018-03-30T08:54:40.989Z,58.70
2018-03-30T08:57:10.994Z,58.70
2018-03-30T08:59:40.924Z,59.10
2018-03-30T09:02:11.309Z,59.10
2018-03-30T09:04:40.166Z,59.10
2018-03-30T09:07:08.895Z,58.80
2018-03-30T09:09:38.614Z,58.70
2018-03-30T09:12:09.657Z,59.90
2018-03-30T09:14:38.920Z,59.30
2018-03-30T09:17:07.751Z,58.80
2018-03-30T09:19:36.411Z,58.40
2018-03-30T09:22:05.907Z,56.30
2018-03-30T09:24:34.921Z,56.20
2018-03-30T09:27:04.029Z,56.10
2018-03-30T09:29:32.762Z,56.50
2018-03-30T09:32:01.630Z,57.50
2018-03-30T09:34:30.455Z,55.60
2018-03-30T09:36:59.467Z,55.90
2018-03-30T09:39:28.241Z,54.10
2018-03-30T09:41:57.175Z,53.10
2018-03-30T09:44:25.967Z,53.70
2018-03-30T09:46:54.819Z,52.80
2018-03-30T09:49:24.122Z,53.30
2018-03-30T09:51:53.026Z,52.80
2018-03-30T09:54:22.093Z,53.70
2018-03-30T09:56:51.447Z,52.80
2018-03-30T09:59:21.203Z,51.90
2018-03-30T10:01:52.259Z,52.40
2018-03-30T10:04:24.256Z,52.00
2018-03-30T10:06:53.548Z,50.70
2018-03-30T10:09:23.813Z,51.20
2018-03-30T10:11:54.786Z,51.90
2018-03-30T10:14:24.354Z,50.50
2018-03-30T10:16:54.202Z,51.20
2018-03-30T10:19:23.942Z,51.20
2018-03-30T10:21:53.676Z,51.20
2018-03-30T10:24:23.528Z,51.00
2018-03-30T10:26:52.672Z,50.50
2018-03-30T10:29:22.086Z,50.80
2018-03-30T10:31:51.202Z,52.60
2018-03-30T10:34:20.880Z,51.80
2018-03-30T10:36:50.193Z,52.60
2018-03-30T10:39:21.204Z,50.80
2018-03-30T10:41:51.178Z,49.20
2018-03-30T10:44:20.897Z,47.50
2018-03-30T10:46:51.690Z,50.30
2018-03-30T10:49:21.114Z,50.20
2018-03-30T10:51:49.868Z,50.10
2018-03-30T10:54:18.682Z,51.10
2018-03-30T10:56:47.493Z,51.20
2018-03-30T10:59:16.176Z,51.80
2018-03-30T11:01:45.526Z,52.60
2018-03-30T11:04:15.977Z,50.80
2018-03-30T11:06:44.657Z,50.80
2018-03-30T11:09:13.402Z,49.40
2018-03-30T11:11:43.819Z,48.60
2018-03-30T11:14:13.179Z,48.60
2018-03-30T11:16:43.855Z,47.70
2018-03-30T11:19:12.565Z,48.00
2018-03-30T11:21:41.213Z,48.20
2018-03-30T11:24:09.865Z,47.50
2018-03-30T11:26:38.845Z,48.00
2018-03-30T11:29:08.460Z,47.50
2018-03-30T11:31:37.209Z,50.00
2018-03-30T11:34:05.953Z,49.20
2018-03-30T11:36:35.281Z,50.00
2018-03-30T11:39:04.247Z,48.90
2018-03-30T11:41:34.005Z,50.20
2018-03-30T11:44:03.582Z,50.20
2018-03-30T11:46:33.085Z,50.00
2018-03-30T11:49:02.233Z,46.40
2018-03-30T11:51:30.936Z,45.60
2018-03-30T11:53:59.603Z,47.00
2018-03-30T11:56:28.476Z,46.10
2018-03-30T11:58:57.447Z,46.00
2018-03-30T12:01:27.114Z,45.50
2018-03-30T12:03:56.501Z,43.80
2018-03-30T12:06:26.087Z,44.00
2018-03-30T12:08:54.905Z,44.10
2018-03-30T12:11:24.435Z,45.90
2018-03-30T12:13:54.330Z,44.70
2018-03-30T12:16:24.424Z,45.70
2018-03-30T12:18:53.362Z,45.70
2018-03-30T12:21:22.202Z,44.60
2018-03-30T12:23:51.128Z,44.00
2018-03-30T12:26:19.995Z,43.50
2018-03-30T12:28:49.104Z,44.20
2018-03-30T12:31:17.999Z,45.20
2018-03-30T12:33:47.728Z,45.60
2018-03-30T12:36:16.867Z,45.60
2018-03-30T12:38:45.775Z,44.70
2018-03-30T12:41:15.198Z,42.90
2018-03-30T12:43:45.555Z,42.20
2018-03-30T12:46:15.258Z,43.60
2018-03-30T12:48:44.760Z,43.70
2018-03-30T12:51:13.688Z,44.30
2018-03-30T12:53:42.676Z,44.20
2018-03-30T12:56:11.568Z,43.80
2018-03-30T12:58:40.602Z,44.40
2018-03-30T13:01:10.960Z,45.60
2018-03-30T13:03:39.912Z,46.40
2018-03-30T13:06:08.857Z,47.30
2018-03-30T13:08:37.941Z,47.00
2018-03-30T13:11:07.707Z,47.10
2018-03-30T13:13:38.780Z,46.00
2018-03-30T13:16:08.169Z,46.00
2018-03-30T13:18:38.183Z,44.90
2018-03-30T13:21:07.281Z,44.80
2018-03-30T13:23:36.383Z,45.40
2018-03-30T13:26:05.471Z,45.40
2018-03-30T13:28:35.095Z,47.30
2018-03-30T13:31:05.417Z,46.30
2018-03-30T13:33:34.646Z,46.30
2018-03-30T13:36:04.801Z,45.70
2018-03-30T13:38:34.556Z,45.90
2018-03-30T13:41:03.471Z,44.80
2018-03-30T13:43:32.370Z,46.00
2018-03-30T13:46:01.388Z,46.80
2018-03-30T13:48:30.387Z,47.20
2018-03-30T13:51:12.276Z,47.30
2018-03-30T13:53:43.690Z,47.30
2018-03-30T13:56:14.196Z,46.00
2018-03-30T13:58:49.946Z,46.60
2018-03-30T14:01:22.132Z,46.60
2018-03-30T14:04:08.899Z,47.00
2018-03-30T14:06:51.557Z,46.40
2018-03-30T14:09:25.926Z,48.00
2018-03-30T14:12:03.525Z,49.40
2018-03-30T14:14:32.913Z,49.70
2018-03-30T14:17:05.878Z,51.50
2018-03-30T14:19:42.853Z,52.80
2018-03-30T14:22:35.200Z,52.80
2018-03-30T14:25:08.627Z,53.40
2018-03-30T14:27:45.439Z,54.00
2018-03-30T14:30:21.192Z,53.40
2018-03-30T14:33:05.872Z,52.20
2018-03-30T14:35:45.176Z,50.20
2018-03-30T14:38:25.151Z,47.70
2018-03-30T14:40:54.261Z,47.60
2018-03-30T14:43:44.282Z,51.40
2018-03-30T14:46:17.176Z,51.40
2018-03-30T14:48:56.791Z,53.20
2018-03-30T14:51:43.782Z,53.60
2018-03-30T14:54:20.143Z,53.80
2018-03-30T14:59:58.132Z,52.00
2018-03-30T15:02:32.495Z,53.70
2018-03-30T15:08:59.328Z,54.10
2018-03-30T15:14:45.981Z,53.90
2018-03-30T15:20:37.078Z,54.50
2018-03-30T15:23:16.844Z,54.50
2018-03-30T15:26:05.161Z,55.50
2018-03-30T15:28:36.730Z,55.90
2018-03-30T15:34:35.081Z,55.90
2018-03-30T15:37:17.562Z,55.20
2018-03-30T15:40:01.439Z,55.80
2018-03-30T15:42:40.018Z,55.90
2018-03-30T15:45:16.737Z,55.60
2018-03-30T15:47:45.935Z,54.90
2018-03-30T15:50:15.498Z,54.30
2018-03-30T15:52:45.551Z,53.50
2018-03-30T15:55:14.859Z,53.10
2018-03-30T15:57:44.047Z,52.40
2018-03-30T16:00:18.603Z,52.40
2018-03-30T16:02:48.390Z,51.50
2018-03-30T16:05:19.245Z,51.60
2018-03-30T16:07:49.785Z,51.00
2018-03-30T16:10:34.668Z,51.40
2018-03-30T16:13:05.046Z,52.50
2018-03-30T16:15:34.316Z,53.40
2018-03-30T16:18:05.338Z,54.10
2018-03-30T16:20:35.038Z,55.00
2018-03-30T16:23:05.319Z,56.90
2018-03-30T16:25:34.409Z,58.30
2018-03-30T16:28:03.299Z,59.90
2018-03-30T16:30:32.165Z,64.20
2018-03-30T16:33:01.125Z,64.30
2018-03-30T16:35:31.068Z,67.20
2018-03-30T16:38:00.688Z,67.30
2018-03-30T16:40:29.212Z,67.20
2018-03-30T16:42:57.765Z,67.60
2018-03-30T16:45:26.256Z,70.10
2018-03-30T16:47:56.277Z,71.10
2018-03-30T16:50:25.463Z,73.80
2018-03-30T16:52:55.442Z,72.80
2018-03-30T16:55:24.136Z,72.70
2018-03-30T16:57:52.702Z,75.30
2018-03-30T17:00:22.610Z,76.30
2018-03-30T17:02:52.950Z,76.30
2018-03-30T17:05:21.834Z,78.20
2018-03-30T17:07:51.073Z,78.20
2018-03-30T17:10:19.714Z,79.60
2018-03-30T17:12:48.429Z,80.70
2018-03-30T17:15:16.638Z,80.90
2018-03-30T17:17:47.365Z,80.90
2018-03-30T17:20:16.188Z,80.90
2018-03-30T17:22:44.832Z,82.00
2018-03-30T17:25:13.022Z,82.70
2018-03-30T17:27:41.410Z,82.30
2018-03-30T17:30:09.767Z,82.40
2018-03-30T17:32:39.539Z,82.70
2018-03-30T17:35:08.058Z,82.60
2018-03-30T17:37:36.338Z,82.90
2018-03-30T17:40:04.449Z,82.70
2018-03-30T17:42:32.681Z,83.70
2018-03-30T17:45:00.854Z,83.40
2018-03-30T17:47:29.012Z,83.90
2018-03-30T17:49:57.972Z,83.80
2018-03-30T17:52:27.212Z,83.70
2018-03-30T17:54:55.937Z,83.40
2018-03-30T17:57:26.278Z,83.70
2018-03-30T17:59:54.507Z,83.50
2018-03-30T18:02:22.731Z,84.00
2018-03-30T18:04:51.047Z,83.50
2018-03-30T18:07:19.271Z,83.80
2018-03-30T18:09:48.101Z,84.10
2018-03-30T18:12:17.102Z,83.40
2018-03-30T18:14:46.268Z,84.10
2018-03-30T18:17:15.183Z,84.20
2018-03-30T18:19:43.397Z,84.20
2018-03-30T18:22:12.484Z,85.50
2018-03-30T18:24:40.952Z,85.50
2018-03-30T18:27:09.497Z,85.50
2018-03-30T18:29:38.482Z,85.30
2018-03-30T18:32:07.909Z,85.20
2018-03-30T18:34:36.340Z,85.00
2018-03-30T18:37:04.854Z,84.90
2018-03-30T18:39:33.092Z,85.20
2018-03-30T18:42:02.162Z,86.20
2018-03-30T18:44:30.230Z,86.20
2018-03-30T18:46:58.630Z,87.10
2018-03-30T18:49:26.835Z,88.00
2018-03-30T18:51:55.013Z,88.60
2018-03-30T18:54:24.252Z,89.50
2018-03-30T18:56:52.554Z,89.80
2018-03-30T18:59:20.812Z,90.00
2018-03-30T19:01:48.986Z,90.30
2018-03-30T19:04:17.189Z,90.40
2018-03-30T19:06:46.426Z,90.50
2018-03-30T19:09:15.464Z,90.40
2018-03-30T19:11:44.107Z,90.30
2018-03-30T19:14:13.106Z,90.10
2018-03-30T19:16:41.581Z,90.00
2018-03-30T19:19:09.960Z,89.40
2018-03-30T19:21:39.968Z,89.00
2018-03-30T19:24:08.961Z,88.90
2018-03-30T19:26:38.134Z,88.80
2018-03-30T19:29:06.904Z,89.00
2018-03-30T19:31:36.677Z,88.70
2018-03-30T19:34:05.497Z,88.70
2018-03-30T19:36:33.881Z,89.00
2018-03-30T19:39:04.124Z,89.90
2018-03-30T19:41:32.823Z,89.90
2018-03-30T19:44:02.827Z,89.80
2018-03-30T19:46:31.239Z,90.20
2018-03-30T19:48:59.831Z,90.20
2018-03-30T19:51:28.296Z,90.30
2018-03-30T19:53:56.969Z,90.30
2018-03-30T19:56:26.728Z,90.30
2018-03-30T19:58:55.128Z,90.30
2018-03-30T20:01:23.385Z,90.40
2018-03-30T20:03:51.681Z,90.30
2018-03-30T20:06:20.180Z,90.20
2018-03-30T20:08:49.117Z,90.40
2018-03-30T20:11:18.243Z,90.60
2018-03-30T20:13:54.559Z,90.60
2018-03-30T20:16:24.176Z,90.70
2018-03-30T20:18:52.314Z,90.60
2018-03-30T20:21:23.457Z,90.50
2018-03-30T20:23:51.497Z,90.60
2018-03-30T20:26:20.845Z,90.50
2018-03-30T20:28:49.541Z,90.40
2018-03-30T20:31:18.390Z,90.00
2018-03-30T20:33:46.642Z,90.00
2018-03-30T20:36:16.261Z,88.70
2018-03-30T20:38:45.682Z,87.60
2018-03-30T20:41:14.563Z,87.50
2018-03-30T20:43:42.684Z,86.40
2018-03-30T20:46:11.162Z,87.30
2018-03-30T20:48:42.482Z,87.50
2018-03-30T20:51:10.852Z,87.00
2018-03-30T20:53:39.026Z,87.40
2018-03-30T20:56:07.205Z,87.70
2018-03-30T20:58:35.759Z,87.10
2018-03-30T21:01:04.632Z,87.50
2018-03-30T21:03:32.816Z,87.50
2018-03-30T21:06:02.398Z,87.40
2018-03-30T21:08:31.219Z,87.80
2018-03-30T21:11:00.027Z,86.20
2018-03-30T21:13:29.265Z,85.30
2018-03-30T21:15:57.549Z,85.00
2018-03-30T21:18:25.749Z,85.40
2018-03-30T21:20:56.612Z,85.60
2018-03-30T21:26:11.466Z,86.70
2018-03-30T21:28:39.750Z,87.50
2018-03-30T21:31:08.327Z,88.20
2018-03-30T21:33:36.832Z,88.30
2018-03-30T21:36:04.884Z,89.00
2018-03-30T21:38:32.892Z,89.00
2018-03-30T21:41:02.820Z,88.30
2018-03-30T21:43:31.680Z,88.30
2018-03-30T21:45:59.973Z,88.30
2018-03-30T21:48:28.063Z,88.20
2018-03-30T21:51:01.629Z,88.50
2018-03-30T21:53:38.531Z,87.90
2018-03-30T21:56:07.813Z,88.00
2018-03-30T21:58:35.650Z,88.00
2018-03-30T22:01:03.584Z,87.80
2018-03-30T22:03:36.580Z,87.30
2018-03-30T22:06:06.671Z,87.60
2018-03-30T22:08:36.265Z,87.60
2018-03-30T22:11:04.754Z,87.60
2018-03-30T22:13:35.657Z,88.00
2018-03-30T22:16:04.521Z,88.90
2018-03-30T22:18:32.593Z,88.40
2018-03-30T22:21:00.889Z,88.90
2018-03-30T22:23:29.445Z,89.10
2018-03-30T22:26:00.141Z,89.30
2018-03-30T22:28:28.464Z,89.00
2018-03-30T22:30:56.488Z,89.00
2018-03-30T22:33:26.607Z,89.50
2018-03-30T22:35:55.100Z,89.50
2018-03-30T22:38:23.422Z,89.90
2018-03-30T22:40:51.447Z,90.00
2018-03-30T22:43:20.871Z,90.00
2018-03-30T22:45:49.593Z,90.10
2018-03-30T22:48:17.512Z,90.10
2018-03-30T22:50:45.371Z,90.00
2018-03-30T22:53:13.307Z,90.30
2018-03-30T22:55:41.362Z,90.00
2018-03-30T22:58:09.589Z,89.80
2018-03-30T23:00:38.411Z,88.60
2018-03-30T23:03:06.270Z,88.60
2018-03-30T23:05:34.026Z,88.20
2018-03-30T23:08:02.482Z,87.10
2018-03-30T23:10:30.274Z,87.10
2018-03-30T23:12:58.009Z,86.20
2018-03-30T23:15:26.598Z,85.50
2018-03-30T23:17:55.050Z,85.20
2018-03-30T23:20:22.758Z,85.20
2018-03-30T23:22:50.525Z,84.70
2018-03-30T23:25:18.269Z,84.50
2018-03-30T23:27:46.751Z,83.70
2018-03-30T23:30:14.453Z,83.60
2018-03-30T23:32:43.019Z,83.00
2018-03-30T23:35:10.828Z,83.00
2018-03-30T23:37:38.534Z,82.50
2018-03-30T23:40:06.870Z,82.00
2018-03-30T23:42:35.064Z,82.20
2018-03-30T23:45:03.165Z,81.90
2018-03-30T23:47:31.046Z,81.90
2018-03-30T23:49:58.813Z,81.50
2018-03-30T23:52:26.509Z,81.50
2018-03-30T23:54:54.354Z,81.50
2018-03-30T23:57:22.254Z,81.80
2018-03-30T23:59:50.888Z,82.70
